Cedar Springs, MI (49319)

5:31 AM EDT on October 23, 2014 (GMT -0400)
SE Cedar Springs | Change Station
CLOSE
Current Station
Personal Weather Station
Location: Cedar Springs, MI
Elevation: 865 ft
Nearby Weather Stations

Elev 865 ft 43.19 °N, 85.51 °W | Updated 1 second ago

Mostly Cloudy
Mostly Cloudy
27.3 °F
Feels Like 27 °F
N
0.0
Wind Variable Wind from WNW
Gusts 0.0 mph

Today
High -- | Low -- °F
--% Chance of Precip.
Yesterday
High -- | Low -- °F
Precip. -- in
8:05 AM 6:46 PM
Waning Crescent, 0% visible
Pressure 30.25 in
Visibility 0.2 miles
Clouds
Windchill 27 °F
Dew Point 27 °F
Humidity 98%
Rainfall 0.00 in
Snow Depth Not available.
UV Not available.
Pollen .80 out of 12
Ozone Good
PM2.5 Good
Flu Activity Sporadic
SPECI KGRR 230923Z AUTO 00000KT 1/4SM R26L/1200V1800FT FZFG VV001 M02/M02 A3025 RMK AO2 I1000 T10171022

More Conditions Fewer Conditions

Pressure 30.25 in
Visibility 0.2 miles
Clouds
Windchill 27 °F
Dew Point 27 °F
Humidity 98%
Rainfall 0.00 in
Snow Depth Not available.
UV Not available.
Pollen .80 out of 12
Ozone Good
PM2.5 Good
Flu Activity Sporadic
SPECI KGRR 230923Z AUTO 00000KT 1/4SM R26L/1200V1800FT FZFG VV001 M02/M02 A3025 RMK AO2 I1000 T10171022

More Conditions Fewer Conditions

10-Day Weather Forecast

Almanac

Astronomy

Oct. 23, 2014 Rise Set
Actual Time 8:05 AM EDT 6:46 PM EDT
Civil Twilight 7:36 AM EDT 7:15 PM EDT
Nautical Twilight 7:03 AM EDT 7:48 PM EDT
Astronomical Twilight 6:30 AM EDT 8:21 PM EDT
Moon 7:44 AM EDT 6:47 PM EDT
Length of Visible Light 11h 39m
Length of Day
10h 40m
Tomorrow will be 2m 45s shorter.
Waning Crescent, 0% of the Moon is Illuminated
Today
Waning Crescent
Oct 23
New
Oct 30
First Quarter
Nov 6
Full
Nov 14
Last Quarter

Today's Extremes

State Highs State Lows

Community

WunderPhotos

Upload Photos

1,764,199 photos uploaded!

Nearby

Air Quality

  Air Quality AQ Index Pollutant
Yesterday Good
PM2.5
Yesterday Good
OZONE
Current Good
PM2.5
Current Good
OZONE
Thursday Good
PM2.5
Friday Good
PM2.5
Saturday Good
PM2.5
Sunday Good
PM2.5
Monday Moderate
PM2.5

Snow Depth

Station Depth Elevation
No new snow has been reported.

Earthquake Activity

City Distance Mag. Time & Date
No recent earthquake activity has been reported nearby.
Minimum magnitude displayed is 2.5.

Coastal Water Temperatures

Place Temperature
No Stations Reporting

Nearby Weather Stations